sensor_id;sensor_type;location;lat;lon;timestamp;pressure;altitude;pressure_sealevel;temperature;humidity
7337;BME280;54510;42.016;23.098;2022-12-10T00:01:32;-21656.88;;;19.06;61.46
7337;BME280;54510;42.016;23.098;2022-12-10T00:03:59;-21652.34;;;18.89;61.63
7337;BME280;54510;42.016;23.098;2022-12-10T00:06:27;-21649.88;;;18.80;61.71
7337;BME280;54510;42.016;23.098;2022-12-10T00:08:53;-21657.00;;;19.07;61.63
7337;BME280;54510;42.016;23.098;2022-12-10T00:11:20;-21658.09;;;19.11;60.75
7337;BME280;54510;42.016;23.098;2022-12-10T00:13:47;-21664.16;;;19.33;60.51
7337;BME280;54510;42.016;23.098;2022-12-10T00:16:14;-21667.72;;;19.46;59.97
7337;BME280;54510;42.016;23.098;2022-12-10T00:18:41;-21674.19;;;19.70;59.24
7337;BME280;54510;42.016;23.098;2022-12-10T00:21:10;-21659.91;;;19.17;60.35
7337;BME280;54510;42.016;23.098;2022-12-10T00:23:36;-21663.06;;;19.29;60.04
7337;BME280;54510;42.016;23.098;2022-12-10T00:26:04;-21659.22;;;19.15;59.75
7337;BME280;54510;42.016;23.098;2022-12-10T00:28:29;-21662.38;;;19.26;60.24
7337;BME280;54510;42.016;23.098;2022-12-10T00:30:55;-21671.16;;;19.59;59.34
7337;BME280;54510;42.016;23.098;2022-12-10T00:33:20;-21666.22;;;19.41;60.03
7337;BME280;54510;42.016;23.098;2022-12-10T00:35:46;-21665.66;;;19.39;59.90
7337;BME280;54510;42.016;23.098;2022-12-10T00:38:11;-21667.31;;;19.45;59.88
7337;BME280;54510;42.016;23.098;2022-12-10T00:40:37;-21666.22;;;19.41;59.77
7337;BME280;54510;42.016;23.098;2022-12-10T00:43:02;-21658.09;;;19.11;60.54
7337;BME280;54510;42.016;23.098;2022-12-10T00:45:28;-21665.38;;;19.38;60.67
7337;BME280;54510;42.016;23.098;2022-12-10T00:47:53;-21651.78;;;18.87;61.29
7337;BME280;54510;42.016;23.098;2022-12-10T00:50:18;-21653.59;;;18.94;61.43
7337;BME280;54510;42.016;23.098;2022-12-10T00:52:44;-21664.56;;;19.34;60.41
7337;BME280;54510;42.016;23.098;2022-12-10T00:55:09;-21656.47;;;19.05;60.42
7337;BME280;54510;42.016;23.098;2022-12-10T00:57:34;-21659.91;;;19.17;60.51
7337;BME280;54510;42.016;23.098;2022-12-10T01:00:00;-21647.13;;;18.70;61.92
7337;BME280;54510;42.016;23.098;2022-12-10T01:02:25;-21661.81;;;19.24;60.67
7337;BME280;54510;42.016;23.098;2022-12-10T01:04:54;-21653.03;;;18.92;61.17
7337;BME280;54510;42.016;23.098;2022-12-10T01:07:19;-21659.50;;;19.16;60.95
7337;BME280;54510;42.016;23.098;2022-12-10T01:09:44;-21666.47;;;19.42;60.42
7337;BME280;54510;42.016;23.098;2022-12-10T01:12:10;-21657.84;;;19.10;61.23
7337;BME280;54510;42.016;23.098;2022-12-10T01:14:35;-21665.25;;;19.37;60.75
7337;BME280;54510;42.016;23.098;2022-12-10T01:17:03;-21668.00;;;19.47;60.48
7337;BME280;54510;42.016;23.098;2022-12-10T01:19:29;-21664.44;;;19.34;60.67
7337;BME280;54510;42.016;23.098;2022-12-10T01:21:56;-21665.38;;;19.38;60.89
7337;BME280;54510;42.016;23.098;2022-12-10T01:24:23;-21659.22;;;19.15;61.68
7337;BME280;54510;42.016;23.098;2022-12-10T01:26:49;-21660.03;;;19.18;61.98
7337;BME280;54510;42.016;23.098;2022-12-10T01:29:15;-21655.50;;;19.01;62.61
7337;BME280;54510;42.016;23.098;2022-12-10T01:31:41;-21658.78;;;19.13;62.22
7337;BME280;54510;42.016;23.098;2022-12-10T01:34:10;-21661.00;;;19.21;62.08
7337;BME280;54510;42.016;23.098;2022-12-10T01:36:39;-21666.63;;;19.42;61.59
7337;BME280;54510;42.016;23.098;2022-12-10T01:39:07;-21667.03;;;19.44;61.60
7337;BME280;54510;42.016;23.098;2022-12-10T01:41:38;-21655.09;;;19.00;63.06
7337;BME280;54510;42.016;23.098;2022-12-10T01:46:35;-21661.28;;;19.22;62.53
7337;BME280;54510;42.016;23.098;2022-12-10T01:49:03;-21668.13;;;19.48;61.78
7337;BME280;54510;42.016;23.098;2022-12-10T01:51:31;-21668.56;;;19.49;61.67
7337;BME280;54510;42.016;23.098;2022-12-10T01:53:57;-21668.00;;;19.47;61.90
7337;BME280;54510;42.016;23.098;2022-12-10T01:56:23;-21666.91;;;19.43;62.45
7337;BME280;54510;42.016;23.098;2022-12-10T01:58:51;-21654.94;;;18.99;63.34
7337;BME280;54510;42.016;23.098;2022-12-10T02:04:14;-21664.69;;;19.35;62.84
7337;BME280;54510;42.016;23.098;2022-12-10T02:12:12;-21663.06;;;19.29;63.38
7337;BME280;54510;42.016;23.098;2022-12-10T02:22:30;-21658.25;;;19.11;63.65
7337;BME280;54510;42.016;23.098;2022-12-10T02:24:57;-21658.09;;;19.11;63.93
7337;BME280;54510;42.016;23.098;2022-12-10T02:27:40;-21663.59;;;19.31;63.19
7337;BME280;54510;42.016;23.098;2022-12-10T02:30:09;-21657.44;;;19.08;63.58
7337;BME280;54510;42.016;23.098;2022-12-10T02:32:37;-21668.00;;;19.47;62.93
7337;BME280;54510;42.016;23.098;2022-12-10T02:35:12;-21666.63;;;19.42;62.74
7337;BME280;54510;42.016;23.098;2022-12-10T02:37:50;-21665.13;;;19.37;63.19
7337;BME280;54510;42.016;23.098;2022-12-10T02:40:20;-21663.06;;;19.29;63.47
7337;BME280;54510;42.016;23.098;2022-12-10T02:42:50;-21656.75;;;19.06;64.19
7337;BME280;54510;42.016;23.098;2022-12-10T02:45:17;-21658.78;;;19.13;63.81
7337;BME280;54510;42.016;23.098;2022-12-10T02:47:43;-21655.50;;;19.01;64.28
7337;BME280;54510;42.016;23.098;2022-12-10T02:50:10;-21651.66;;;18.87;64.80
7337;BME280;54510;42.016;23.098;2022-12-10T02:52:37;-21661.81;;;19.24;64.06
7337;BME280;54510;42.016;23.098;2022-12-10T02:55:02;-21658.78;;;19.13;64.78
7337;BME280;54510;42.016;23.098;2022-12-10T02:57:55;-21658.38;;;19.12;64.59
7337;BME280;54510;42.016;23.098;2022-12-10T03:00:24;-21657.69;;;19.09;64.55
7337;BME280;54510;42.016;23.098;2022-12-10T03:03:11;-21642.16;;;18.52;66.05
7337;BME280;54510;42.016;23.098;2022-12-10T03:06:05;-21649.72;;;18.80;65.76
7337;BME280;54510;42.016;23.098;2022-12-10T03:08:49;-21651.66;;;18.87;65.19
7337;BME280;54510;42.016;23.098;2022-12-10T03:11:21;-21649.47;;;18.79;65.48
7337;BME280;54510;42.016;23.098;2022-12-10T03:16:16;-21653.16;;;18.92;65.00
7337;BME280;54510;42.016;23.098;2022-12-10T03:18:44;-21651.66;;;18.87;64.95
7337;BME280;54510;42.016;23.098;2022-12-10T03:21:11;-21658.78;;;19.13;64.63
7337;BME280;54510;42.016;23.098;2022-12-10T03:23:40;-21662.50;;;19.27;63.86
7337;BME280;54510;42.016;23.098;2022-12-10T03:26:08;-21648.50;;;18.75;65.03
7337;BME280;54510;42.016;23.098;2022-12-10T03:28:38;-21650.56;;;18.83;65.21
7337;BME280;54510;42.016;23.098;2022-12-10T03:31:06;-21642.88;;;18.54;66.25
7337;BME280;54510;42.016;23.098;2022-12-10T03:33:33;-21653.84;;;18.95;65.00
7337;BME280;54510;42.016;23.098;2022-12-10T03:35:58;-21655.22;;;19.00;64.69
7337;BME280;54510;42.016;23.098;2022-12-10T03:38:25;-21653.03;;;18.92;64.75
7337;BME280;54510;42.016;23.098;2022-12-10T03:40:50;-21656.75;;;19.06;63.81
7337;BME280;54510;42.016;23.098;2022-12-10T03:43:16;-21658.38;;;19.12;63.89
7337;BME280;54510;42.016;23.098;2022-12-10T03:45:41;-21654.13;;;18.96;64.08
7337;BME280;54510;42.016;23.098;2022-12-10T03:48:06;-21657.69;;;19.09;63.99
7337;BME280;54510;42.016;23.098;2022-12-10T03:50:32;-21666.75;;;19.43;63.24
7337;BME280;54510;42.016;23.098;2022-12-10T03:52:57;-21657.28;;;19.08;63.94
7337;BME280;54510;42.016;23.098;2022-12-10T03:55:23;-21651.38;;;18.86;65.24
7337;BME280;54510;42.016;23.098;2022-12-10T03:57:48;-21654.94;;;18.99;64.61
7337;BME280;54510;42.016;23.098;2022-12-10T04:00:14;-21653.16;;;18.92;65.02
7337;BME280;54510;42.016;23.098;2022-12-10T04:02:39;-21654.53;;;18.98;64.64
7337;BME280;54510;42.016;23.098;2022-12-10T04:05:06;-21653.16;;;18.92;64.74
7337;BME280;54510;42.016;23.098;2022-12-10T04:07:32;-21652.63;;;18.90;64.37
7337;BME280;54510;42.016;23.098;2022-12-10T04:09:58;-21655.50;;;19.01;63.93
7337;BME280;54510;42.016;23.098;2022-12-10T04:12:23;-21654.69;;;18.98;63.87
7337;BME280;54510;42.016;23.098;2022-12-10T04:14:49;-21660.72;;;19.20;63.23
7337;BME280;54510;42.016;23.098;2022-12-10T04:17:33;-21658.94;;;19.14;63.24
7337;BME280;54510;42.016;23.098;2022-12-10T04:20:01;-21653.44;;;18.93;63.40
7337;BME280;54510;42.016;23.098;2022-12-10T04:22:26;-21651.66;;;18.87;63.38
7337;BME280;54510;42.016;23.098;2022-12-10T04:25:12;-21651.78;;;18.87;63.36
7337;BME280;54510;42.016;23.098;2022-12-10T04:27:56;-21650.00;;;18.81;63.87
7337;BME280;54510;42.016;23.098;2022-12-10T04:30:21;-21647.41;;;18.71;64.27
7337;BME280;54510;42.016;23.098;2022-12-10T04:32:47;-21647.25;;;18.71;64.79
7337;BME280;54510;42.016;23.098;2022-12-10T04:35:12;-21652.06;;;18.88;63.74
7337;BME280;54510;42.016;23.098;2022-12-10T04:37:38;-21647.66;;;18.72;64.00
7337;BME280;54510;42.016;23.098;2022-12-10T04:40:04;-21644.25;;;18.60;64.26
7337;BME280;54510;42.016;23.098;2022-12-10T04:42:30;-21647.94;;;18.73;63.70
7337;BME280;54510;42.016;23.098;2022-12-10T04:44:55;-21647.81;;;18.73;63.73
7337;BME280;54510;42.016;23.098;2022-12-10T04:47:21;-21652.63;;;18.90;63.31
7337;BME280;54510;42.016;23.098;2022-12-10T04:49:46;-21651.25;;;18.85;63.27
7337;BME280;54510;42.016;23.098;2022-12-10T04:52:14;-21648.91;;;18.77;62.86
7337;BME280;54510;42.016;23.098;2022-12-10T04:54:41;-21650.84;;;18.84;62.72
7337;BME280;54510;42.016;23.098;2022-12-10T04:57:07;-21646.72;;;18.69;63.75
7337;BME280;54510;42.016;23.098;2022-12-10T04:59:33;-21653.03;;;18.92;62.71
7337;BME280;54510;42.016;23.098;2022-12-10T05:01:58;-21648.50;;;18.75;62.93
7337;BME280;54510;42.016;23.098;2022-12-10T05:04:23;-21649.47;;;18.79;62.98
7337;BME280;54510;42.016;23.098;2022-12-10T05:06:49;-21644.09;;;18.59;63.14
7337;BME280;54510;42.016;23.098;2022-12-10T05:09:15;-21642.59;;;18.53;62.95
7337;BME280;54510;42.016;23.098;2022-12-10T05:11:42;-21642.31;;;18.52;62.90
7337;BME280;54510;42.016;23.098;2022-12-10T05:14:10;-21637.09;;;18.33;63.01
7337;BME280;54510;42.016;23.098;2022-12-10T05:16:36;-21642.31;;;18.52;62.56
7337;BME280;54510;42.016;23.098;2022-12-10T05:19:02;-21636.94;;;18.33;63.23
7337;BME280;54510;42.016;23.098;2022-12-10T05:21:29;-21646.31;;;18.67;62.56
7337;BME280;54510;42.016;23.098;2022-12-10T05:24:16;-21640.53;;;18.46;63.50
7337;BME280;54510;42.016;23.098;2022-12-10T05:26:42;-21639.97;;;18.44;63.72
7337;BME280;54510;42.016;23.098;2022-12-10T05:29:07;-21647.81;;;18.73;62.94
7337;BME280;54510;42.016;23.098;2022-12-10T05:31:33;-21643.00;;;18.55;63.86
7337;BME280;54510;42.016;23.098;2022-12-10T05:33:59;-21647.13;;;18.70;63.60
7337;BME280;54510;42.016;23.098;2022-12-10T05:36:27;-21643.00;;;18.55;64.29
7337;BME280;54510;42.016;23.098;2022-12-10T05:38:54;-21638.31;;;18.38;65.34
7337;BME280;54510;42.016;23.098;2022-12-10T05:41:23;-21644.94;;;18.62;64.68
7337;BME280;54510;42.016;23.098;2022-12-10T05:43:49;-21654.41;;;18.97;63.72
7337;BME280;54510;42.016;23.098;2022-12-10T05:46:21;-21654.69;;;18.98;63.62
7337;BME280;54510;42.016;23.098;2022-12-10T05:48:48;-21653.03;;;18.92;63.92
7337;BME280;54510;42.016;23.098;2022-12-10T05:51:17;-21651.78;;;18.87;64.29
7337;BME280;54510;42.016;23.098;2022-12-10T05:53:43;-21650.00;;;18.81;64.03
7337;BME280;54510;42.016;23.098;2022-12-10T05:56:11;-21642.72;;;18.54;64.88
7337;BME280;54510;42.016;23.098;2022-12-10T05:58:38;-21642.31;;;18.52;65.71
7337;BME280;54510;42.016;23.098;2022-12-10T06:01:09;-21641.22;;;18.48;65.87
7337;BME280;54510;42.016;23.098;2022-12-10T06:03:35;-21648.38;;;18.75;65.34
7337;BME280;54510;42.016;23.098;2022-12-10T06:06:01;-21656.59;;;19.05;64.52
7337;BME280;54510;42.016;23.098;2022-12-10T06:08:26;-21650.41;;;18.82;64.37
7337;BME280;54510;42.016;23.098;2022-12-10T06:10:51;-21646.97;;;18.70;65.88
7337;BME280;54510;42.016;23.098;2022-12-10T06:13:19;-21654.94;;;18.99;64.99
7337;BME280;54510;42.016;23.098;2022-12-10T06:15:44;-21653.03;;;18.92;64.99
7337;BME280;54510;42.016;23.098;2022-12-10T06:18:09;-21649.59;;;18.79;65.33
7337;BME280;54510;42.016;23.098;2022-12-10T06:20:38;-21659.75;;;19.17;64.19
7337;BME280;54510;42.016;23.098;2022-12-10T06:23:04;-21657.16;;;19.07;64.76
7337;BME280;54510;42.016;23.098;2022-12-10T06:25:29;-21662.22;;;19.26;63.83
7337;BME280;54510;42.016;23.098;2022-12-10T06:27:55;-21657.28;;;19.08;64.09
7337;BME280;54510;42.016;23.098;2022-12-10T06:30:20;-21653.84;;;18.95;64.45
7337;BME280;54510;42.016;23.098;2022-12-10T06:32:46;-21656.59;;;19.05;64.11
7337;BME280;54510;42.016;23.098;2022-12-10T06:35:11;-21654.13;;;18.96;64.32
7337;BME280;54510;42.016;23.098;2022-12-10T06:37:37;-21659.34;;;19.15;63.57
7337;BME280;54510;42.016;23.098;2022-12-10T06:40:03;-21654.94;;;18.99;63.63
7337;BME280;54510;42.016;23.098;2022-12-10T06:42:29;-21651.94;;;18.88;64.88
7337;BME280;54510;42.016;23.098;2022-12-10T06:44:54;-21654.81;;;18.99;64.48
7337;BME280;54510;42.016;23.098;2022-12-10T06:47:20;-21649.88;;;18.80;64.59
7337;BME280;54510;42.016;23.098;2022-12-10T06:49:45;-21652.63;;;18.90;64.78
7337;BME280;54510;42.016;23.098;2022-12-10T06:52:10;-21636.53;;;18.31;66.16
7337;BME280;54510;42.016;23.098;2022-12-10T06:54:36;-21648.50;;;18.75;65.30
7337;BME280;54510;42.016;23.098;2022-12-10T06:57:01;-21642.88;;;18.54;65.45
7337;BME280;54510;42.016;23.098;2022-12-10T06:59:27;-21654.81;;;18.99;64.84
7337;BME280;54510;42.016;23.098;2022-12-10T07:01:52;-21661.13;;;19.22;64.36
7337;BME280;54510;42.016;23.098;2022-12-10T07:04:18;-21652.63;;;18.90;65.12
7337;BME280;54510;42.016;23.098;2022-12-10T07:06:43;-21654.00;;;18.96;65.10
7337;BME280;54510;42.016;23.098;2022-12-10T07:09:09;-21658.78;;;19.13;64.86
7337;BME280;54510;42.016;23.098;2022-12-10T07:11:38;-21653.03;;;18.92;64.79
7337;BME280;54510;42.016;23.098;2022-12-10T07:14:03;-21658.38;;;19.12;64.15
7337;BME280;54510;42.016;23.098;2022-12-10T07:16:31;-21663.75;;;19.31;63.40
7337;BME280;54510;42.016;23.098;2022-12-10T07:18:59;-21656.75;;;19.06;63.85
7337;BME280;54510;42.016;23.098;2022-12-10T07:21:33;-21658.53;;;19.12;63.78
7337;BME280;54510;42.016;23.098;2022-12-10T07:24:05;-21653.03;;;18.92;63.55
7337;BME280;54510;42.016;23.098;2022-12-10T07:26:33;-21655.50;;;19.01;64.71
7337;BME280;54510;42.016;23.098;2022-12-10T07:29:00;-21663.34;;;19.30;62.85
7337;BME280;54510;42.016;23.098;2022-12-10T07:31:26;-21668.69;;;19.50;62.70
7337;BME280;54510;42.016;23.098;2022-12-10T07:33:53;-21661.00;;;19.21;63.28
7337;BME280;54510;42.016;23.098;2022-12-10T07:36:20;-21672.38;;;19.63;61.88
7337;BME280;54510;42.016;23.098;2022-12-10T07:38:48;-21657.16;;;19.07;63.07
7337;BME280;54510;42.016;23.098;2022-12-10T07:41:13;-21648.63;;;18.76;63.89
7337;BME280;54510;42.016;23.098;2022-12-10T07:43:41;-21652.34;;;18.89;63.73
7337;BME280;54510;42.016;23.098;2022-12-10T07:46:09;-21656.06;;;19.03;63.23
7337;BME280;54510;42.016;23.098;2022-12-10T07:48:36;-21664.16;;;19.33;62.66
7337;BME280;54510;42.016;23.098;2022-12-10T07:51:01;-21658.53;;;19.12;63.24
7337;BME280;54510;42.016;23.098;2022-12-10T07:53:27;-21655.22;;;19.00;64.14
7337;BME280;54510;42.016;23.098;2022-12-10T07:55:52;-21660.03;;;19.18;63.63
7337;BME280;54510;42.016;23.098;2022-12-10T07:58:18;-21662.63;;;19.27;63.27
7337;BME280;54510;42.016;23.098;2022-12-10T08:00:43;-21664.44;;;19.34;63.07
7337;BME280;54510;42.016;23.098;2022-12-10T08:03:09;-21660.84;;;19.21;62.99
7337;BME280;54510;42.016;23.098;2022-12-10T08:05:34;-21665.13;;;19.37;62.98
7337;BME280;54510;42.016;23.098;2022-12-10T08:08:00;-21663.59;;;19.31;62.62
7337;BME280;54510;42.016;23.098;2022-12-10T08:10:25;-21651.25;;;18.85;64.06
7337;BME280;54510;42.016;23.098;2022-12-10T08:12:50;-21652.22;;;18.89;64.24
7337;BME280;54510;42.016;23.098;2022-12-10T08:15:16;-21649.31;;;18.78;64.20
7337;BME280;54510;42.016;23.098;2022-12-10T08:17:41;-21657.00;;;19.07;63.85
7337;BME280;54510;42.016;23.098;2022-12-10T08:20:07;-21651.38;;;18.86;64.11
7337;BME280;54510;42.016;23.098;2022-12-10T08:22:33;-21650.84;;;18.84;64.18
7337;BME280;54510;42.016;23.098;2022-12-10T08:24:59;-21652.63;;;18.90;63.35
7337;BME280;54510;42.016;23.098;2022-12-10T08:27:25;-21657.84;;;19.10;63.00
7337;BME280;54510;42.016;23.098;2022-12-10T08:29:50;-21658.94;;;19.14;62.83
7337;BME280;54510;42.016;23.098;2022-12-10T08:32:16;-21662.78;;;19.28;62.45
7337;BME280;54510;42.016;23.098;2022-12-10T08:34:41;-21661.81;;;19.24;62.01
7337;BME280;54510;42.016;23.098;2022-12-10T08:37:07;-21661.13;;;19.22;61.93
7337;BME280;54510;42.016;23.098;2022-12-10T08:39:32;-21657.00;;;19.07;62.75
7337;BME280;54510;42.016;23.098;2022-12-10T08:41:58;-21654.53;;;18.98;62.80
7337;BME280;54510;42.016;23.098;2022-12-10T08:44:24;-21666.47;;;19.42;61.73
7337;BME280;54510;42.016;23.098;2022-12-10T08:46:49;-21674.44;;;19.71;61.24
7337;BME280;54510;42.016;23.098;2022-12-10T08:49:15;-21670.06;;;19.55;60.97
7337;BME280;54510;42.016;23.098;2022-12-10T08:51:40;-21647.53;;;18.72;62.96
7337;BME280;54510;42.016;23.098;2022-12-10T08:54:06;-21660.31;;;19.19;62.19
7337;BME280;54510;42.016;23.098;2022-12-10T08:56:31;-21670.59;;;19.57;61.38
7337;BME280;54510;42.016;23.098;2022-12-10T08:58:56;-21672.53;;;19.64;60.54
7337;BME280;54510;42.016;23.098;2022-12-10T09:01:22;-21668.00;;;19.47;60.75
7337;BME280;54510;42.016;23.098;2022-12-10T09:03:48;-21665.78;;;19.39;60.47
7337;BME280;54510;42.016;23.098;2022-12-10T09:06:15;-21661.81;;;19.24;61.16
7337;BME280;54510;42.016;23.098;2022-12-10T09:08:41;-21662.63;;;19.27;60.86
7337;BME280;54510;42.016;23.098;2022-12-10T09:13:36;-21669.78;;;19.54;60.12
7337;BME280;54510;42.016;23.098;2022-12-10T09:16:01;-21665.66;;;19.39;60.87
7337;BME280;54510;42.016;23.098;2022-12-10T09:18:27;-21666.06;;;19.40;60.58
7337;BME280;54510;42.016;23.098;2022-12-10T09:20:52;-21673.91;;;19.69;59.77
7337;BME280;54510;42.016;23.098;2022-12-10T09:23:17;-21668.41;;;19.49;60.34
7337;BME280;54510;42.016;23.098;2022-12-10T09:25:43;-21678.16;;;19.85;59.23
7337;BME280;54510;42.016;23.098;2022-12-10T09:28:08;-21671.28;;;19.59;59.48
7337;BME280;54510;42.016;23.098;2022-12-10T09:30:34;-21676.38;;;19.78;59.82
7337;BME280;54510;42.016;23.098;2022-12-10T09:32:59;-21688.72;;;20.24;58.32
7337;BME280;54510;42.016;23.098;2022-12-10T09:35:25;-21683.50;;;20.04;58.23
7337;BME280;54510;42.016;23.098;2022-12-10T09:37:50;-21687.34;;;20.19;58.49
7337;BME280;54510;42.016;23.098;2022-12-10T09:40:30;-21683.91;;;20.06;58.59
7337;BME280;54510;42.016;23.098;2022-12-10T09:43:16;-21690.22;;;20.29;58.40
7337;BME280;54510;42.016;23.098;2022-12-10T09:48:30;-21690.50;;;20.30;57.90
7337;BME280;54510;42.016;23.098;2022-12-10T09:51:12;-21692.97;;;20.39;57.77
7337;BME280;54510;42.016;23.098;2022-12-10T09:53:45;-21691.19;;;20.33;57.93
7337;BME280;54510;42.016;23.098;2022-12-10T09:56:22;-21696.13;;;20.51;57.26
7337;BME280;54510;42.016;23.098;2022-12-10T09:58:48;-21690.22;;;20.29;57.98
7337;BME280;54510;42.016;23.098;2022-12-10T10:01:16;-21696.41;;;20.52;57.47
7337;BME280;54510;42.016;23.098;2022-12-10T10:03:43;-21699.00;;;20.62;56.97
7337;BME280;54510;42.016;23.098;2022-12-10T10:06:12;-21705.84;;;20.87;56.11
7337;BME280;54510;42.016;23.098;2022-12-10T10:11:11;-21706.38;;;20.89;56.26
7337;BME280;54510;42.016;23.098;2022-12-10T10:13:43;-21709.53;;;21.01;55.84
7337;BME280;54510;42.016;23.098;2022-12-10T10:16:34;-21719.53;;;21.38;55.70
7337;BME280;54510;42.016;23.098;2022-12-10T10:21:34;-21718.72;;;21.35;55.32
7337;BME280;54510;42.016;23.098;2022-12-10T10:24:01;-21727.06;;;21.65;54.43
7337;BME280;54510;42.016;23.098;2022-12-10T10:26:27;-21722.41;;;21.48;55.76
7337;BME280;54510;42.016;23.098;2022-12-10T10:28:57;-21724.34;;;21.55;54.76
7337;BME280;54510;42.016;23.098;2022-12-10T10:31:27;-21712.28;;;21.11;55.14
7337;BME280;54510;42.016;23.098;2022-12-10T10:33:56;-21708.03;;;20.95;54.98
7337;BME280;54510;42.016;23.098;2022-12-10T10:36:30;-21696.53;;;20.53;56.06
7337;BME280;54510;42.016;23.098;2022-12-10T10:38:56;-21695.16;;;20.47;56.38
7337;BME280;54510;42.016;23.098;2022-12-10T10:41:25;-21698.59;;;20.60;55.59
7337;BME280;54510;42.016;23.098;2022-12-10T10:43:59;-21695.72;;;20.49;55.48
7337;BME280;54510;42.016;23.098;2022-12-10T10:46:26;-21689.41;;;20.26;56.34
7337;BME280;54510;42.016;23.098;2022-12-10T10:49:12;-21698.03;;;20.58;55.31
7337;BME280;54510;42.016;23.098;2022-12-10T10:51:42;-21697.63;;;20.57;55.71
7337;BME280;54510;42.016;23.098;2022-12-10T10:54:09;-21703.78;;;20.79;54.97
7337;BME280;54510;42.016;23.098;2022-12-10T10:56:42;-21702.16;;;20.73;55.48
7337;BME280;54510;42.016;23.098;2022-12-10T11:04:10;-21705.16;;;20.84;54.91
7337;BME280;54510;42.016;23.098;2022-12-10T11:06:36;-21695.56;;;20.49;55.20
7337;BME280;54510;42.016;23.098;2022-12-10T11:09:01;-21698.59;;;20.60;55.54
7337;BME280;54510;42.016;23.098;2022-12-10T11:11:39;-21700.91;;;20.69;54.92
7337;BME280;54510;42.016;23.098;2022-12-10T11:14:25;-21695.28;;;20.48;55.87
7337;BME280;54510;42.016;23.098;2022-12-10T11:17:00;-21698.59;;;20.60;55.24
7337;BME280;54510;42.016;23.098;2022-12-10T11:19:26;-21693.94;;;20.43;56.01
7337;BME280;54510;42.016;23.098;2022-12-10T11:21:52;-21691.72;;;20.35;55.77
7337;BME280;54510;42.016;23.098;2022-12-10T11:24:19;-21688.56;;;20.23;56.16
7337;BME280;54510;42.016;23.098;2022-12-10T11:27:00;-21695.56;;;20.49;55.96
7337;BME280;54510;42.016;23.098;2022-12-10T11:29:38;-21689.41;;;20.26;56.04
7337;BME280;54510;42.016;23.098;2022-12-10T11:37:35;-21696.53;;;20.53;55.18
7337;BME280;54510;42.016;23.098;2022-12-10T11:51:38;-21685.00;;;20.10;56.51
7337;BME280;54510;42.016;23.098;2022-12-10T11:56:43;-21689.41;;;20.26;56.43
7337;BME280;54510;42.016;23.098;2022-12-10T12:07:33;-21687.63;;;20.20;56.16
7337;BME280;54510;42.016;23.098;2022-12-10T12:13:02;-21680.75;;;19.94;56.88
7337;BME280;54510;42.016;23.098;2022-12-10T12:15:49;-21684.19;;;20.07;56.81
7337;BME280;54510;42.016;23.098;2022-12-10T12:18:21;-21686.38;;;20.15;55.98
7337;BME280;54510;42.016;23.098;2022-12-10T12:21:01;-21681.31;;;19.96;57.03
7337;BME280;54510;42.016;23.098;2022-12-10T12:26:17;-21682.25;;;20.00;56.89
7337;BME280;54510;42.016;23.098;2022-12-10T12:28:50;-21681.44;;;19.97;56.74
7337;BME280;54510;42.016;23.098;2022-12-10T12:31:20;-21679.13;;;19.88;56.33
7337;BME280;54510;42.016;23.098;2022-12-10T12:33:51;-21682.53;;;20.01;56.47
7337;BME280;54510;42.016;23.098;2022-12-10T12:36:27;-21679.38;;;19.89;56.89
7337;BME280;54510;42.016;23.098;2022-12-10T12:39:13;-21682.00;;;19.99;56.73
7337;BME280;54510;42.016;23.098;2022-12-10T12:44:51;-21682.41;;;20.00;56.55
7337;BME280;54510;42.016;23.098;2022-12-10T12:49:52;-21681.16;;;19.96;56.85
7337;BME280;54510;42.016;23.098;2022-12-10T12:52:44;-21679.81;;;19.91;56.89
7337;BME280;54510;42.016;23.098;2022-12-10T12:55:19;-21678.69;;;19.87;57.30
7337;BME280;54510;42.016;23.098;2022-12-10T13:00:24;-21675.81;;;19.76;58.03
7337;BME280;54510;42.016;23.098;2022-12-10T13:05:40;-21683.63;;;20.05;58.12
7337;BME280;54510;42.016;23.098;2022-12-10T13:10:50;-21677.88;;;19.84;58.63
7337;BME280;54510;42.016;23.098;2022-12-10T13:13:29;-21669.09;;;19.51;59.86
7337;BME280;54510;42.016;23.098;2022-12-10T13:15:56;-21672.53;;;19.64;59.76
7337;BME280;54510;42.016;23.098;2022-12-10T13:18:34;-21663.75;;;19.31;60.43
7337;BME280;54510;42.016;23.098;2022-12-10T13:21:26;-21672.38;;;19.63;60.15
7337;BME280;54510;42.016;23.098;2022-12-10T13:23:54;-21661.00;;;19.21;60.73
7337;BME280;54510;42.016;23.098;2022-12-10T13:26:31;-21668.81;;;19.50;60.35
7337;BME280;54510;42.016;23.098;2022-12-10T13:29:13;-21671.44;;;19.60;60.08
7337;BME280;54510;42.016;23.098;2022-12-10T13:32:02;-21669.22;;;19.52;60.19
7337;BME280;54510;42.016;23.098;2022-12-10T13:34:35;-21674.19;;;19.70;59.91
7337;BME280;54510;42.016;23.098;2022-12-10T13:50:03;-21665.53;;;19.38;60.29
7337;BME280;54510;42.016;23.098;2022-12-10T13:55:59;-21661.53;;;19.23;61.01
7337;BME280;54510;42.016;23.098;2022-12-10T14:01:26;-21665.94;;;19.40;60.78
7337;BME280;54510;42.016;23.098;2022-12-10T14:06:45;-21648.38;;;18.75;63.19
7337;BME280;54510;42.016;23.098;2022-12-10T14:09:18;-21646.44;;;18.68;63.44
7337;BME280;54510;42.016;23.098;2022-12-10T14:11:53;-21650.00;;;18.81;63.38
7337;BME280;54510;42.016;23.098;2022-12-10T14:14:29;-21656.88;;;19.06;63.27
7337;BME280;54510;42.016;23.098;2022-12-10T14:17:00;-21652.75;;;18.91;63.18
7337;BME280;54510;42.016;23.098;2022-12-10T14:19:27;-21666.06;;;19.40;62.77
7337;BME280;54510;42.016;23.098;2022-12-10T14:21:54;-21646.97;;;18.70;64.99
7337;BME280;54510;42.016;23.098;2022-12-10T14:24:29;-21655.63;;;19.02;64.31
7337;BME280;54510;42.016;23.098;2022-12-10T14:27:01;-21661.53;;;19.23;63.86
7337;BME280;54510;42.016;23.098;2022-12-10T14:29:28;-21665.66;;;19.39;63.27
7337;BME280;54510;42.016;23.098;2022-12-10T14:31:54;-21663.59;;;19.31;63.55
7337;BME280;54510;42.016;23.098;2022-12-10T14:34:24;-21665.66;;;19.39;63.56
7337;BME280;54510;42.016;23.098;2022-12-10T14:36:53;-21649.47;;;18.79;64.69
7337;BME280;54510;42.016;23.098;2022-12-10T14:39:30;-21651.94;;;18.88;65.16
7337;BME280;54510;42.016;23.098;2022-12-10T14:41:57;-21662.09;;;19.25;63.73
7337;BME280;54510;42.016;23.098;2022-12-10T14:44:25;-21665.25;;;19.37;63.54